createdAt,value
2018-06-24T00:05:42.745Z,1.33
2018-06-24T00:11:31.090Z,1.07
2018-06-24T00:42:09.534Z,1.40
2018-06-24T01:40:02.502Z,1.23
2018-06-24T02:08:04.665Z,1.20
2018-06-24T02:18:37.145Z,1.40
2018-06-24T02:30:55.589Z,1.50
2018-06-24T02:33:28.107Z,1.33
2018-06-24T02:36:22.574Z,1.40
2018-06-24T03:08:06.618Z,1.40
2018-06-24T03:31:45.080Z,1.07
2018-06-24T03:39:15.727Z,0.90
2018-06-24T03:41:50.167Z,0.90
2018-06-24T03:44:18.747Z,0.70
2018-06-24T03:46:46.655Z,0.63
2018-06-24T03:49:18.735Z,0.87
2018-06-24T03:51:46.351Z,0.97
2018-06-24T03:54:14.958Z,0.63
2018-06-24T03:56:42.395Z,0.80
2018-06-24T03:59:09.820Z,0.80
2018-06-24T04:01:37.321Z,0.90
2018-06-24T04:06:44.870Z,0.90
2018-06-24T04:09:30.004Z,0.80
2018-06-24T04:12:12.628Z,0.80
2018-06-24T04:14:43.093Z,0.80
2018-06-24T04:17:11.414Z,0.80
2018-06-24T04:19:40.056Z,0.90
2018-06-24T04:22:07.873Z,0.70
2018-06-24T04:24:35.281Z,0.87
2018-06-24T04:27:02.749Z,0.80
2018-06-24T04:29:30.185Z,0.80
2018-06-24T04:31:57.597Z,0.80
2018-06-24T04:34:25.086Z,0.77
2018-06-24T04:36:52.496Z,0.80
2018-06-24T04:39:19.913Z,0.83
2018-06-24T04:41:47.309Z,0.97
2018-06-24T04:44:14.721Z,1.10
2018-06-24T04:46:42.121Z,0.80
2018-06-24T04:49:09.537Z,0.90
2018-06-24T04:51:36.978Z,0.83
2018-06-24T04:54:04.446Z,0.90
2018-06-24T04:56:31.880Z,0.70
2018-06-24T04:58:59.303Z,0.80
2018-06-24T05:01:26.695Z,0.90
2018-06-24T05:03:54.122Z,0.70
2018-06-24T05:06:21.558Z,1.10
2018-06-24T05:08:48.980Z,0.83
2018-06-24T05:14:19.106Z,0.90
2018-06-24T05:16:46.545Z,0.93
2018-06-24T05:19:14.010Z,1.03
2018-06-24T05:21:41.401Z,0.90
2018-06-24T05:24:16.077Z,1.00
2018-06-24T05:26:43.462Z,1.20
2018-06-24T05:29:11.437Z,1.37
2018-06-24T05:31:38.865Z,1.30
2018-06-24T05:34:06.474Z,1.43
2018-06-24T05:36:33.934Z,1.60
2018-06-24T05:39:01.325Z,1.57
2018-06-24T05:41:28.787Z,1.83
2018-06-24T05:43:56.229Z,1.50
2018-06-24T05:46:23.648Z,2.10
2018-06-24T05:48:51.091Z,2.07
2018-06-24T05:51:18.581Z,1.77
2018-06-24T05:53:46.022Z,1.80
2018-06-24T05:56:13.437Z,2.10
2018-06-24T05:58:40.822Z,2.00
2018-06-24T06:01:08.266Z,2.27
2018-06-24T06:03:36.954Z,1.90
2018-06-24T06:06:11.557Z,1.87
2018-06-24T06:32:19.119Z,2.10
2018-06-24T07:01:33.423Z,2.33
2018-06-24T07:04:00.856Z,2.23
2018-06-24T07:06:28.318Z,1.93
2018-06-24T07:08:55.757Z,2.03
2018-06-24T07:11:23.184Z,2.20
2018-06-24T07:13:50.645Z,2.00
2018-06-24T07:16:18.076Z,2.10
2018-06-24T07:18:45.489Z,2.07
2018-06-24T07:21:12.907Z,2.03
2018-06-24T07:23:40.323Z,1.93
2018-06-24T07:26:07.748Z,2.10
2018-06-24T07:28:35.152Z,2.10
2018-06-24T07:31:02.609Z,1.70
2018-06-24T07:33:30.141Z,1.80
2018-06-24T07:35:57.500Z,1.90
2018-06-24T07:38:24.892Z,1.90
2018-06-24T07:40:52.328Z,1.80
2018-06-24T07:43:19.715Z,1.87
2018-06-24T07:45:47.206Z,2.00
2018-06-24T07:48:14.593Z,1.90
2018-06-24T07:50:42.005Z,1.80
2018-06-24T07:53:09.401Z,1.80
2018-06-24T07:55:36.834Z,1.80
2018-06-24T07:58:04.291Z,2.07
2018-06-24T08:00:31.994Z,2.07
2018-06-24T08:02:59.402Z,1.80
2018-06-24T08:05:26.788Z,1.97
2018-06-24T08:07:54.255Z,2.10
2018-06-24T08:10:21.669Z,2.03
2018-06-24T08:12:49.086Z,2.20
2018-06-24T08:15:16.532Z,2.10
2018-06-24T08:17:43.954Z,2.33
2018-06-24T08:20:11.386Z,2.00
2018-06-24T08:22:38.836Z,2.10
2018-06-24T08:25:06.270Z,2.00
2018-06-24T08:27:33.689Z,1.90
2018-06-24T08:30:01.112Z,2.07
2018-06-24T08:32:28.574Z,1.80
2018-06-24T08:34:56.021Z,2.37
2018-06-24T08:37:23.468Z,1.83
2018-06-24T08:39:50.929Z,1.70
2018-06-24T08:42:18.332Z,1.90
2018-06-24T08:44:45.757Z,2.00
2018-06-24T08:47:13.209Z,1.70
2018-06-24T08:49:40.570Z,1.80
2018-06-24T08:52:08.021Z,1.60
2018-06-24T08:54:35.413Z,1.50
2018-06-24T08:57:02.838Z,1.60
2018-06-24T08:59:30.229Z,1.50
2018-06-24T09:01:57.652Z,1.60
2018-06-24T09:04:25.056Z,1.90
2018-06-24T09:06:52.458Z,1.50
2018-06-24T09:09:19.886Z,1.50
2018-06-24T09:11:47.279Z,1.67
2018-06-24T09:14:14.741Z,1.57
2018-06-24T09:16:42.145Z,1.50
2018-06-24T09:19:09.574Z,1.80
2018-06-24T09:21:37.009Z,1.50
2018-06-24T09:24:04.464Z,1.80
2018-06-24T09:26:31.882Z,1.70
2018-06-24T09:28:59.413Z,1.80
2018-06-24T09:31:26.839Z,1.73
2018-06-24T09:33:54.297Z,1.60
2018-06-24T09:36:21.719Z,1.70
2018-06-24T09:38:49.108Z,2.00
2018-06-24T09:41:16.568Z,1.40
2018-06-24T09:43:43.983Z,1.47
2018-06-24T09:46:11.430Z,1.60
2018-06-24T09:48:38.829Z,1.60
2018-06-24T09:51:06.302Z,1.40
2018-06-24T09:53:33.763Z,1.60
2018-06-24T09:56:01.184Z,1.70
2018-06-24T09:58:28.599Z,1.53
2018-06-24T10:00:55.999Z,1.40
2018-06-24T10:03:23.472Z,1.60
2018-06-24T10:05:50.909Z,1.70
2018-06-24T10:08:18.296Z,1.70
2018-06-24T10:10:45.725Z,1.60
2018-06-24T10:13:13.165Z,1.80
2018-06-24T10:15:40.597Z,1.80
2018-06-24T10:18:08.090Z,2.13
2018-06-24T10:20:35.515Z,1.80
2018-06-24T10:23:02.951Z,1.60
2018-06-24T10:25:30.373Z,1.60
2018-06-24T10:27:57.775Z,2.07
2018-06-24T10:30:25.213Z,1.87
2018-06-24T10:32:52.629Z,1.80
2018-06-24T10:35:20.035Z,1.70
2018-06-24T10:37:47.419Z,1.90
2018-06-24T10:40:14.829Z,1.90
2018-06-24T10:42:42.252Z,1.70
2018-06-24T10:45:09.676Z,1.93
2018-06-24T10:47:37.083Z,1.97
2018-06-24T10:50:04.546Z,1.70
2018-06-24T10:52:31.961Z,1.93
2018-06-24T10:54:59.372Z,2.00
2018-06-24T10:57:26.794Z,1.77
2018-06-24T10:59:54.215Z,2.20
2018-06-24T11:02:21.638Z,1.97
2018-06-24T11:04:49.077Z,1.80
2018-06-24T11:07:16.461Z,2.03
2018-06-24T11:09:43.919Z,2.10
2018-06-24T11:12:11.341Z,2.10
2018-06-24T11:14:38.754Z,2.20
2018-06-24T11:17:06.177Z,2.33
2018-06-24T11:19:33.628Z,2.20
2018-06-24T11:22:01.016Z,2.27
2018-06-24T11:24:28.453Z,2.37
2018-06-24T11:26:55.862Z,2.40
2018-06-24T11:29:23.315Z,2.40
2018-06-24T11:31:50.813Z,2.50
2018-06-24T11:34:18.195Z,2.93
2018-06-24T11:36:45.641Z,2.50
2018-06-24T11:39:13.076Z,2.57
2018-06-24T11:41:40.505Z,2.33
2018-06-24T11:44:07.960Z,2.70
2018-06-24T11:46:35.377Z,2.73
2018-06-24T11:49:02.798Z,2.60
2018-06-24T11:51:30.258Z,2.30
2018-06-24T11:53:57.684Z,2.40
2018-06-24T11:56:25.073Z,2.50
2018-06-24T11:58:52.480Z,2.60
2018-06-24T12:01:19.908Z,2.70
2018-06-24T12:03:47.345Z,2.63
2018-06-24T12:06:14.772Z,2.90
2018-06-24T12:08:42.223Z,2.37
2018-06-24T12:11:09.705Z,2.30
2018-06-24T12:13:37.171Z,2.63
2018-06-24T12:16:04.844Z,3.00
2018-06-24T12:18:32.661Z,2.93
2018-06-24T12:21:00.091Z,3.10
2018-06-24T12:23:27.545Z,2.60
2018-06-24T12:25:54.996Z,3.00
2018-06-24T12:28:22.445Z,2.40
2018-06-24T12:30:49.919Z,2.87
2018-06-24T12:33:17.329Z,2.90
2018-06-24T12:35:44.801Z,2.97
2018-06-24T12:38:12.234Z,2.60
2018-06-24T12:40:39.669Z,2.40
2018-06-24T12:43:07.107Z,2.60
2018-06-24T12:45:34.576Z,2.77
2018-06-24T12:48:02.012Z,2.40
2018-06-24T12:50:29.465Z,2.60
2018-06-24T12:52:57.408Z,2.50
2018-06-24T12:55:24.978Z,2.40
2018-06-24T13:15:48.459Z,2.30
2018-06-24T14:14:43.680Z,2.43
2018-06-24T15:39:56.733Z,2.40
2018-06-24T15:56:42.063Z,2.00
2018-06-24T16:07:54.846Z,1.90
2018-06-24T16:10:43.461Z,2.13
2018-06-24T16:13:11.310Z,1.67
2018-06-24T16:15:39.593Z,2.40
2018-06-24T16:18:16.182Z,2.70
2018-06-24T16:20:44.038Z,2.93
2018-06-24T16:23:11.325Z,2.83
2018-06-24T16:25:38.752Z,2.87
2018-06-24T16:28:07.079Z,3.00
2018-06-24T16:30:34.599Z,2.87
2018-06-24T16:33:02.099Z,3.10
2018-06-24T16:35:31.796Z,3.30
2018-06-24T16:39:07.309Z,3.20
2018-06-24T16:41:35.217Z,4.37
2018-06-24T16:44:04.380Z,4.03
2018-06-24T16:46:51.690Z,4.13
2018-06-24T16:49:27.002Z,3.60
2018-06-24T16:56:01.046Z,4.20
2018-06-24T16:58:28.864Z,4.00
2018-06-24T17:01:11.927Z,3.40
2018-06-24T17:03:40.742Z,3.97
2018-06-24T17:06:11.177Z,3.73
2018-06-24T17:08:38.859Z,3.97
2018-06-24T17:11:06.623Z,3.97
2018-06-24T17:19:23.281Z,3.40
2018-06-24T17:21:50.870Z,3.07
2018-06-24T17:24:18.320Z,2.50
2018-06-24T17:26:45.776Z,2.93
2018-06-24T17:29:13.512Z,3.37
2018-06-24T17:36:40.360Z,3.40
2018-06-24T17:39:14.842Z,3.53
2018-06-24T17:41:45.001Z,3.03
2018-06-24T17:44:34.247Z,3.10
2018-06-24T17:51:14.853Z,3.40
2018-06-24T17:53:42.385Z,3.40
2018-06-24T17:56:11.889Z,3.37
2018-06-24T17:58:49.841Z,3.77
2018-06-24T18:01:17.504Z,2.90
2018-06-24T18:03:44.938Z,3.03
2018-06-24T18:09:05.170Z,2.70
2018-06-24T18:11:32.600Z,2.57
2018-06-24T18:19:51.712Z,2.70
2018-06-24T18:22:20.331Z,2.30
2018-06-24T18:24:48.505Z,2.97
2018-06-24T18:27:21.529Z,2.50
2018-06-24T18:29:52.006Z,2.50
2018-06-24T18:35:12.376Z,2.87
2018-06-24T18:37:43.965Z,2.60
2018-06-24T18:40:15.602Z,2.80
2018-06-24T18:42:44.286Z,2.90
2018-06-24T18:45:11.987Z,2.80
2018-06-24T18:47:43.991Z,3.00
2018-06-24T18:50:12.584Z,3.43
2018-06-24T18:52:41.989Z,3.17
2018-06-24T18:55:11.922Z,3.37
2018-06-24T18:57:40.927Z,3.10
2018-06-24T19:00:12.178Z,3.20
2018-06-24T19:02:51.531Z,3.57
2018-06-24T19:07:27.957Z,4.07
2018-06-24T19:09:57.946Z,3.17
2018-06-24T19:13:04.155Z,3.17
2018-06-24T19:15:32.966Z,3.37
2018-06-24T19:18:08.939Z,3.20
2018-06-24T19:21:48.074Z,3.53
2018-06-24T19:24:25.968Z,3.33
2018-06-24T19:26:54.042Z,3.30
2018-06-24T19:29:22.194Z,3.30
2018-06-24T19:31:57.548Z,3.97
2018-06-24T19:34:33.231Z,3.43
2018-06-24T19:37:13.104Z,3.77
2018-06-24T19:43:11.528Z,3.37
2018-06-24T19:50:32.003Z,3.80
2018-06-24T19:56:45.466Z,3.60
2018-06-24T19:59:15.602Z,3.70
2018-06-24T20:01:44.322Z,3.33
2018-06-24T20:04:14.305Z,3.33
2018-06-24T20:06:45.100Z,4.13
2018-06-24T20:12:23.220Z,4.00
2018-06-24T20:15:42.763Z,3.67
2018-06-24T20:18:21.832Z,3.70
2018-06-24T20:24:02.139Z,3.80
2018-06-24T20:26:53.897Z,3.60
2018-06-24T20:29:21.425Z,4.23
2018-06-24T20:31:48.909Z,3.57
2018-06-24T20:34:16.714Z,3.73
2018-06-24T20:36:44.380Z,4.10
2018-06-24T20:39:13.133Z,3.97
2018-06-24T20:41:40.836Z,3.53
2018-06-24T20:44:08.337Z,3.20
2018-06-24T20:46:35.970Z,3.60
2018-06-24T20:49:03.414Z,3.40
2018-06-24T20:51:30.861Z,3.40
2018-06-24T20:53:58.292Z,3.33
2018-06-24T20:56:25.705Z,3.50
2018-06-24T20:59:04.569Z,3.43
2018-06-24T21:01:32.409Z,2.97
2018-06-24T21:12:18.854Z,3.27
2018-06-24T21:15:06.423Z,3.30
2018-06-24T21:28:55.815Z,3.77
2018-06-24T21:42:13.896Z,3.60
2018-06-24T21:47:47.711Z,3.60
2018-06-24T21:50:15.154Z,3.53
2018-06-24T21:52:42.650Z,3.00
2018-06-24T21:55:10.107Z,4.00
2018-06-24T21:57:37.508Z,3.60
2018-06-24T22:00:07.154Z,3.83
2018-06-24T22:02:34.589Z,3.70
2018-06-24T22:05:01.989Z,4.37
2018-06-24T22:07:29.431Z,3.97
2018-06-24T22:09:56.815Z,4.23
2018-06-24T22:12:24.227Z,4.07
2018-06-24T22:14:51.708Z,4.27
2018-06-24T22:17:19.338Z,4.63
2018-06-24T22:19:47.945Z,4.70
2018-06-24T22:33:10.710Z,4.90
2018-06-24T22:52:54.623Z,6.03
2018-06-24T22:55:22.969Z,5.63
2018-06-24T22:59:39.936Z,5.70
2018-06-24T23:07:37.115Z,5.30
2018-06-24T23:10:08.414Z,4.63
2018-06-24T23:17:11.792Z,3.70
2018-06-24T23:20:05.561Z,3.90
2018-06-24T23:22:55.304Z,3.73
2018-06-24T23:35:05.976Z,3.40
2018-06-24T23:37:51.579Z,3.70
2018-06-24T23:40:22.853Z,4.60
2018-06-24T23:43:08.659Z,3.63
2018-06-24T23:45:50.288Z,4.10
2018-06-24T23:51:39.389Z,3.43
2018-06-24T23:54:13.784Z,3.80
2018-06-24T23:56:47.678Z,5.83
2018-06-24T23:59:38.166Z,4.13
